Time,TemperatureF,DewpointF,PressureIn,WindDirection,WindDirectionDegrees,WindSpeedMPH,WindSpeedGustMPH,Humidity,HourlyPrecipIn,Conditions,Clouds,dailyrainin,SoftwareType,DateUTC
2013-07-11 00:01:00,75.4,71.6,29.94,NE,37,0.0,0.0,88,0.15,,,0.00,WUHU216DAVISVP2,2013-07-11 04:01:00,
2013-07-11 00:06:00,75.6,71.8,29.94,NE,37,0.0,0.0,88,0.14,,,0.00,WUHU216DAVISVP2,2013-07-11 04:06:00,
2013-07-11 00:11:00,75.6,71.8,29.94,NE,37,0.0,0.0,88,0.13,,,0.00,WUHU216DAVISVP2,2013-07-11 04:11:00,
2013-07-11 00:16:00,75.6,71.8,29.93,NE,37,0.0,0.0,88,0.05,,,0.01,WUHU216DAVISVP2,2013-07-11 04:16:00,
2013-07-11 00:21:00,75.8,72.0,29.93,NE,37,0.0,0.0,88,0.04,,,0.03,WUHU216DAVISVP2,2013-07-11 04:21:00,
2013-07-11 00:26:00,75.8,72.0,29.93,NE,37,0.0,0.0,88,0.04,,,0.03,WUHU216DAVISVP2,2013-07-11 04:26:00,
2013-07-11 00:31:00,76.0,72.2,29.93,NE,37,0.0,0.0,88,0.04,,,0.03,WUHU216DAVISVP2,2013-07-11 04:31:00,
2013-07-11 00:36:00,76.1,72.6,29.93,NE,37,0.0,0.0,89,0.03,,,0.03,WUHU216DAVISVP2,2013-07-11 04:36:00,
2013-07-11 00:41:00,76.0,72.5,29.93,NE,37,0.0,0.0,89,0.03,,,0.03,WUHU216DAVISVP2,2013-07-11 04:41:00,
2013-07-11 00:46:00,76.1,72.6,29.93,NE,37,0.0,0.0,89,0.03,,,0.03,WUHU216DAVISVP2,2013-07-11 04:46:00,
2013-07-11 00:51:00,76.1,72.6,29.93,NE,37,0.0,0.0,89,0.03,,,0.03,WUHU216DAVISVP2,2013-07-11 04:51:00,
2013-07-11 00:56:00,76.1,72.6,29.93,NE,37,0.0,0.0,89,0.03,,,0.03,WUHU216DAVISVP2,2013-07-11 04:56:00,
2013-07-11 01:01:00,76.1,72.6,29.92,NE,37,0.0,0.0,89,0.03,,,0.03,WUHU216DAVISVP2,2013-07-11 05:01:00,
2013-07-11 01:06:00,76.3,72.8,29.92,NE,37,0.0,0.0,89,0.03,,,0.03,WUHU216DAVISVP2,2013-07-11 05:06:00,
2013-07-11 01:11:00,76.5,73.0,29.92,NE,37,0.0,0.0,89,0.03,,,0.03,WUHU216DAVISVP2,2013-07-11 05:11:00,
2013-07-11 01:16:00,76.3,72.8,29.92,NE,37,0.0,0.0,89,0.02,,,0.03,WUHU216DAVISVP2,2013-07-11 05:16:00,
2013-07-11 01:21:00,76.3,72.8,29.92,NE,37,0.0,0.0,89,0.00,,,0.03,WUHU216DAVISVP2,2013-07-11 05:21:00,
2013-07-11 01:26:00,76.5,73.0,29.92,NE,37,0.0,0.0,89,0.00,,,0.04,WUHU216DAVISVP2,2013-07-11 05:26:00,
2013-07-11 01:31:00,76.5,73.0,29.91,NE,37,0.0,0.0,89,0.01,,,0.04,WUHU216DAVISVP2,2013-07-11 05:31:00,
2013-07-11 01:36:00,76.3,72.8,29.91,NE,37,0.0,0.0,89,0.01,,,0.04,WUHU216DAVISVP2,2013-07-11 05:36:00,
2013-07-11 01:41:00,76.5,73.0,29.91,NE,37,0.0,0.0,89,0.02,,,0.05,WUHU216DAVISVP2,2013-07-11 05:41:00,
2013-07-11 01:46:00,76.7,73.2,29.90,NE,37,0.0,0.0,89,0.03,,,0.06,WUHU216DAVISVP2,2013-07-11 05:46:00,
2013-07-11 01:51:00,76.7,73.2,29.90,NE,37,0.0,0.0,89,0.04,,,0.07,WUHU216DAVISVP2,2013-07-11 05:51:00,
2013-07-11 01:56:00,76.5,73.0,29.90,NE,37,0.0,0.0,89,0.04,,,0.07,WUHU216DAVISVP2,2013-07-11 05:56:00,
2013-07-11 02:01:00,76.7,73.2,29.89,NE,37,0.0,0.0,89,0.04,,,0.07,WUHU216DAVISVP2,2013-07-11 06:01:00,
2013-07-11 02:06:00,76.5,73.0,29.89,NE,37,0.0,0.0,89,0.04,,,0.07,WUHU216DAVISVP2,2013-07-11 06:06:00,
2013-07-11 02:11:00,76.7,73.2,29.89,NE,37,0.0,0.0,89,0.04,,,0.07,WUHU216DAVISVP2,2013-07-11 06:11:00,
2013-07-11 02:16:00,76.7,73.2,29.88,NE,37,0.0,0.0,89,0.04,,,0.07,WUHU216DAVISVP2,2013-07-11 06:16:00,
2013-07-11 02:21:00,76.5,73.3,29.88,NE,37,0.0,0.0,90,0.04,,,0.07,WUHU216DAVISVP2,2013-07-11 06:21:00,
2013-07-11 02:26:00,76.5,73.3,29.88,NE,37,0.0,0.0,90,0.03,,,0.07,WUHU216DAVISVP2,2013-07-11 06:26:00,
2013-07-11 02:31:00,76.5,73.3,29.88,NE,37,0.0,0.0,90,0.03,,,0.07,WUHU216DAVISVP2,2013-07-11 06:31:00,
2013-07-11 02:36:00,76.8,73.6,29.88,NE,37,0.0,0.0,90,0.03,,,0.07,WUHU216DAVISVP2,2013-07-11 06:36:00,
2013-07-11 02:41:00,76.7,73.5,29.88,NE,37,0.0,0.0,90,0.02,,,0.07,WUHU216DAVISVP2,2013-07-11 06:41:00,
2013-07-11 02:46:00,76.8,73.6,29.88,NE,37,0.0,0.0,90,0.01,,,0.07,WUHU216DAVISVP2,2013-07-11 06:46:00,
2013-07-11 02:51:00,76.7,73.5,29.88,North,3,1.0,1.0,90,0.00,,,0.07,WUHU216DAVISVP2,2013-07-11 06:51:00,
2013-07-11 02:56:00,76.7,73.5,29.88,NW,311,0.0,1.0,90,0.00,,,0.07,WUHU216DAVISVP2,2013-07-11 06:56:00,
2013-07-11 03:02:00,76.7,73.5,29.88,NW,311,0.0,0.0,90,0.00,,,0.07,WUHU216DAVISVP2,2013-07-11 07:02:00,
2013-07-11 03:07:00,76.7,73.5,29.88,NW,311,0.0,0.0,90,0.00,,,0.07,WUHU216DAVISVP2,2013-07-11 07:07:00,
2013-07-11 03:12:00,76.7,73.5,29.88,NW,311,0.0,0.0,90,0.00,,,0.07,WUHU216DAVISVP2,2013-07-11 07:12:00,
2013-07-11 03:17:00,76.7,73.5,29.88,NW,311,0.0,0.0,90,0.00,,,0.07,WUHU216DAVISVP2,2013-07-11 07:17:00,
2013-07-11 03:22:00,76.8,73.6,29.88,NW,311,0.0,0.0,90,0.01,,,0.08,WUHU216DAVISVP2,2013-07-11 07:22:00,
2013-07-11 03:27:00,76.8,73.6,29.88,NW,311,0.0,0.0,90,0.01,,,0.08,WUHU216DAVISVP2,2013-07-11 07:27:00,
2013-07-11 03:32:00,76.8,73.6,29.88,NW,311,0.0,0.0,90,0.01,,,0.08,WUHU216DAVISVP2,2013-07-11 07:32:00,
2013-07-11 03:37:00,76.8,73.6,29.88,NW,311,0.0,0.0,90,0.01,,,0.08,WUHU216DAVISVP2,2013-07-11 07:37:00,
2013-07-11 03:42:00,77.0,73.8,29.88,NW,311,0.0,0.0,90,0.01,,,0.08,WUHU216DAVISVP2,2013-07-11 07:42:00,
2013-07-11 03:47:00,77.0,73.8,29.89,NW,311,0.0,0.0,90,0.01,,,0.08,WUHU216DAVISVP2,2013-07-11 07:47:00,
2013-07-11 03:52:00,77.0,73.8,29.89,NW,311,0.0,0.0,90,0.01,,,0.08,WUHU216DAVISVP2,2013-07-11 07:52:00,
2013-07-11 03:57:00,77.0,73.8,29.89,NW,311,0.0,0.0,90,0.01,,,0.08,WUHU216DAVISVP2,2013-07-11 07:57:00,
2013-07-11 04:02:00,77.0,73.8,29.88,NW,311,0.0,0.0,90,0.01,,,0.08,WUHU216DAVISVP2,2013-07-11 08:02:00,
2013-07-11 04:07:00,77.0,73.8,29.88,NW,311,0.0,0.0,90,0.01,,,0.08,WUHU216DAVISVP2,2013-07-11 08:07:00,
2013-07-11 04:12:00,77.0,73.8,29.88,NW,311,0.0,0.0,90,0.01,,,0.08,WUHU216DAVISVP2,2013-07-11 08:12:00,
2013-07-11 04:17:00,77.0,73.8,29.88,NW,311,0.0,0.0,90,0.01,,,0.08,WUHU216DAVISVP2,2013-07-11 08:17:00,
2013-07-11 04:22:00,76.8,73.6,29.88,NW,311,0.0,0.0,90,0.00,,,0.08,WUHU216DAVISVP2,2013-07-11 08:22:00,
2013-07-11 04:27:00,76.8,73.6,29.88,NW,311,0.0,0.0,90,0.00,,,0.08,WUHU216DAVISVP2,2013-07-11 08:27:00,
2013-07-11 04:32:00,76.8,73.6,29.88,NW,311,0.0,0.0,90,0.00,,,0.08,WUHU216DAVISVP2,2013-07-11 08:32:00,
2013-07-11 04:37:00,76.8,73.6,29.88,NW,311,0.0,0.0,90,0.00,,,0.08,WUHU216DAVISVP2,2013-07-11 08:37:00,
2013-07-11 04:42:00,76.8,73.6,29.88,NW,312,0.0,0.0,90,0.00,,,0.08,WUHU216DAVISVP2,2013-07-11 08:42:00,
2013-07-11 04:47:00,77.0,74.2,29.89,NW,315,0.0,0.0,91,0.00,,,0.08,WUHU216DAVISVP2,2013-07-11 08:47:00,
2013-07-11 04:52:00,77.0,73.8,29.89,NNW,332,0.0,0.0,90,0.00,,,0.08,WUHU216DAVISVP2,2013-07-11 08:52:00,
2013-07-11 04:57:00,77.0,73.8,29.89,NNW,332,0.0,0.0,90,0.00,,,0.08,WUHU216DAVISVP2,2013-07-11 08:57:00,
2013-07-11 05:02:00,77.0,74.2,29.89,NNW,329,0.0,0.0,91,0.00,,,0.08,WUHU216DAVISVP2,2013-07-11 09:02:00,
2013-07-11 05:07:00,77.0,74.2,29.89,NNW,329,0.0,0.0,91,0.00,,,0.08,WUHU216DAVISVP2,2013-07-11 09:07:00,
2013-07-11 05:12:00,77.0,74.2,29.89,NNW,329,0.0,0.0,91,0.00,,,0.08,WUHU216DAVISVP2,2013-07-11 09:12:00,
2013-07-11 05:17:00,77.0,74.2,29.90,NW,326,0.0,0.0,91,0.00,,,0.08,WUHU216DAVISVP2,2013-07-11 09:17:00,
2013-07-11 05:22:00,77.0,74.2,29.90,NW,326,0.0,0.0,91,0.00,,,0.08,WUHU216DAVISVP2,2013-07-11 09:22:00,
2013-07-11 05:27:00,77.0,74.2,29.90,NW,326,0.0,0.0,91,0.00,,,0.08,WUHU216DAVISVP2,2013-07-11 09:27:00,
2013-07-11 05:32:00,77.0,74.2,29.90,NW,326,0.0,0.0,91,0.00,,,0.08,WUHU216DAVISVP2,2013-07-11 09:32:00,
2013-07-11 05:37:00,77.2,74.4,29.90,NW,326,0.0,0.0,91,0.00,,,0.08,WUHU216DAVISVP2,2013-07-11 09:37:00,
2013-07-11 05:42:00,77.2,74.4,29.90,NW,326,0.0,0.0,91,0.00,,,0.08,WUHU216DAVISVP2,2013-07-11 09:42:00,
2013-07-11 05:47:00,77.2,74.4,29.90,NW,326,0.0,0.0,91,0.00,,,0.08,WUHU216DAVISVP2,2013-07-11 09:47:00,
2013-07-11 05:52:00,77.2,74.4,29.90,NW,326,0.0,0.0,91,0.00,,,0.08,WUHU216DAVISVP2,2013-07-11 09:52:00,
2013-07-11 06:00:00,77.2,74.4,29.91,NW,326,0.0,0.0,91,0.00,,,0.08,WUHU216DAVISVP2,2013-07-11 10:00:00,
2013-07-11 06:05:00,77.2,74.4,29.91,NW,326,0.0,0.0,91,0.00,,,0.08,WUHU216DAVISVP2,2013-07-11 10:05:00,
2013-07-11 06:10:00,77.7,74.8,29.91,NW,326,0.0,0.0,91,0.00,,,0.08,WUHU216DAVISVP2,2013-07-11 10:10:00,
2013-07-11 06:15:00,77.4,74.6,29.91,NW,326,0.0,0.0,91,0.00,,,0.08,WUHU216DAVISVP2,2013-07-11 10:15:00,
2013-07-11 06:20:00,77.4,74.6,29.91,NW,326,0.0,0.0,91,0.00,,,0.08,WUHU216DAVISVP2,2013-07-11 10:20:00,
2013-07-11 06:25:00,77.6,74.7,29.91,SW,223,0.0,2.0,91,0.00,,,0.08,WUHU216DAVISVP2,2013-07-11 10:25:00,
2013-07-11 06:30:00,77.4,74.6,29.91,West,271,0.0,2.0,91,0.00,,,0.08,WUHU216DAVISVP2,2013-07-11 10:30:00,
2013-07-11 06:35:00,77.4,74.6,29.91,West,271,0.0,0.0,91,0.00,,,0.08,WUHU216DAVISVP2,2013-07-11 10:35:00,
2013-07-11 06:40:00,77.6,74.7,29.91,West,271,0.0,0.0,91,0.00,,,0.08,WUHU216DAVISVP2,2013-07-11 10:40:00,
2013-07-11 06:45:00,77.6,74.7,29.91,West,280,0.0,1.0,91,0.00,,,0.08,WUHU216DAVISVP2,2013-07-11 10:45:00,
2013-07-11 06:50:00,77.6,74.7,29.91,West,280,0.0,1.0,91,0.00,,,0.08,WUHU216DAVISVP2,2013-07-11 10:50:00,
2013-07-11 06:55:00,77.7,74.8,29.91,West,280,0.0,0.0,91,0.00,,,0.08,WUHU216DAVISVP2,2013-07-11 10:55:00,
2013-07-11 07:00:00,77.7,74.8,29.92,West,280,0.0,0.0,91,0.00,,,0.08,WUHU216DAVISVP2,2013-07-11 11:00:00,
2013-07-11 07:05:00,77.9,75.0,29.92,West,280,0.0,0.0,91,0.00,,,0.08,WUHU216DAVISVP2,2013-07-11 11:05:00,
2013-07-11 07:10:00,78.1,75.2,29.92,West,280,0.0,0.0,91,0.00,,,0.08,WUHU216DAVISVP2,2013-07-11 11:10:00,
2013-07-11 07:15:00,78.3,75.4,29.91,West,280,0.0,0.0,91,0.00,,,0.08,WUHU216DAVISVP2,2013-07-11 11:15:00,
2013-07-11 07:20:00,78.3,75.4,29.91,West,280,0.0,0.0,91,0.00,,,0.08,WUHU216DAVISVP2,2013-07-11 11:20:00,
2013-07-11 07:25:00,78.5,75.6,29.91,West,280,0.0,0.0,91,0.00,,,0.08,WUHU216DAVISVP2,2013-07-11 11:25:00,
2013-07-11 07:30:00,79.0,76.1,29.91,West,280,0.0,0.0,91,0.00,,,0.08,WUHU216DAVISVP2,2013-07-11 11:30:00,
2013-07-11 07:35:00,78.6,75.7,29.91,West,280,0.0,0.0,91,0.00,,,0.08,WUHU216DAVISVP2,2013-07-11 11:35:00,
2013-07-11 07:40:00,78.6,75.7,29.91,West,280,0.0,0.0,91,0.00,,,0.08,WUHU216DAVISVP2,2013-07-11 11:40:00,
2013-07-11 07:45:00,78.6,75.7,29.91,West,280,0.0,0.0,91,0.00,,,0.08,WUHU216DAVISVP2,2013-07-11 11:45:00,
2013-07-11 07:50:00,79.2,76.3,29.91,West,260,0.0,1.0,91,0.00,,,0.08,WUHU216DAVISVP2,2013-07-11 11:50:00,
2013-07-11 07:55:00,78.8,75.9,29.91,SW,223,0.0,1.0,91,0.00,,,0.08,WUHU216DAVISVP2,2013-07-11 11:55:00,
2013-07-11 08:00:00,78.8,75.9,29.92,WNW,295,0.0,1.0,91,0.00,,,0.08,WUHU216DAVISVP2,2013-07-11 12:00:00,
2013-07-11 08:05:00,79.0,76.1,29.92,WNW,301,0.0,2.0,91,0.00,,,0.08,WUHU216DAVISVP2,2013-07-11 12:05:00,
2013-07-11 08:10:00,79.6,76.7,29.92,NNW,335,0.0,2.0,91,0.00,,,0.08,WUHU216DAVISVP2,2013-07-11 12:10:00,
2013-07-11 08:16:00,79.2,76.3,29.92,East,97,0.0,2.0,91,0.00,,,0.08,WUHU216DAVISVP2,2013-07-11 12:16:00,
2013-07-11 08:21:00,79.6,77.1,29.92,East,96,0.0,1.0,92,0.00,,,0.08,WUHU216DAVISVP2,2013-07-11 12:21:00,
2013-07-11 08:26:00,79.6,76.7,29.92,East,96,0.0,0.0,91,0.00,,,0.08,WUHU216DAVISVP2,2013-07-11 12:26:00,
2013-07-11 08:31:00,79.6,76.7,29.92,East,96,0.0,0.0,91,0.00,,,0.08,WUHU216DAVISVP2,2013-07-11 12:31:00,
2013-07-11 08:36:00,79.4,76.5,29.92,NE,38,0.0,1.0,91,0.00,,,0.08,WUHU216DAVISVP2,2013-07-11 12:36:00,
2013-07-11 08:41:00,79.0,76.1,29.92,SSE,158,0.0,1.0,91,0.00,,,0.08,WUHU216DAVISVP2,2013-07-11 12:41:00,
2013-07-11 08:46:00,79.0,76.1,29.92,SE,145,0.0,0.0,91,0.00,,,0.08,WUHU216DAVISVP2,2013-07-11 12:46:00,
2013-07-11 08:51:00,79.0,76.1,29.92,SE,145,0.0,0.0,91,0.00,,,0.08,WUHU216DAVISVP2,2013-07-11 12:51:00,
2013-07-11 08:56:00,79.4,76.5,29.92,SE,145,0.0,0.0,91,0.00,,,0.08,WUHU216DAVISVP2,2013-07-11 12:56:00,
2013-07-11 09:01:00,79.2,76.3,29.92,SSE,147,0.0,0.0,91,0.00,,,0.08,WUHU216DAVISVP2,2013-07-11 13:01:00,
2013-07-11 09:06:00,78.8,75.9,29.92,West,264,0.0,2.0,91,0.00,,,0.08,WUHU216DAVISVP2,2013-07-11 13:06:00,
2013-07-11 09:11:00,79.2,76.3,29.92,West,264,0.0,2.0,91,0.00,,,0.08,WUHU216DAVISVP2,2013-07-11 13:11:00,
2013-07-11 09:16:00,79.0,76.1,29.92,East,89,0.0,0.0,91,0.00,,,0.08,WUHU216DAVISVP2,2013-07-11 13:16:00,
2013-07-11 09:21:00,79.4,76.5,29.92,East,89,0.0,0.0,91,0.00,,,0.08,WUHU216DAVISVP2,2013-07-11 13:21:00,
2013-07-11 09:26:00,78.8,75.9,29.92,NNW,344,0.0,0.0,91,0.00,,,0.08,WUHU216DAVISVP2,2013-07-11 13:26:00,
2013-07-11 09:32:00,79.0,76.1,29.91,NNW,343,0.0,0.0,91,0.00,,,0.08,WUHU216DAVISVP2,2013-07-11 13:32:00,
2013-07-11 09:37:00,78.8,75.9,29.91,NNE,24,0.0,0.0,91,0.00,,,0.08,WUHU216DAVISVP2,2013-07-11 13:37:00,
2013-07-11 09:42:00,78.5,75.7,29.91,ENE,64,0.0,0.0,91,0.00,,,0.08,WUHU216DAVISVP2,2013-07-11 13:42:00,
2013-07-11 09:47:00,78.5,75.6,29.92,ENE,59,0.0,0.0,91,0.00,,,0.08,WUHU216DAVISVP2,2013-07-11 13:47:00,
2013-07-11 09:52:00,78.1,75.2,29.92,West,278,0.0,0.0,91,0.00,,,0.08,WUHU216DAVISVP2,2013-07-11 13:52:00,
2013-07-11 09:57:00,78.1,75.2,29.92,NNE,24,0.0,0.0,91,0.00,,,0.08,WUHU216DAVISVP2,2013-07-11 13:57:00,
2013-07-11 10:02:00,77.9,75.0,29.92,WSW,250,0.0,0.0,91,0.00,,,0.08,WUHU216DAVISVP2,2013-07-11 14:02:00,
2013-07-11 10:07:00,77.7,74.8,29.92,WNW,298,0.0,0.0,91,0.00,,,0.08,WUHU216DAVISVP2,2013-07-11 14:07:00,
2013-07-11 10:13:00,77.7,74.8,29.92,WNW,298,0.0,0.0,91,0.00,,,0.08,WUHU216DAVISVP2,2013-07-11 14:13:00,
2013-07-11 10:18:00,78.3,75.4,29.92,WNW,298,0.0,0.0,91,0.00,,,0.08,WUHU216DAVISVP2,2013-07-11 14:18:00,
2013-07-11 10:24:00,78.5,75.6,29.92,WNW,298,0.0,0.0,91,0.00,,,0.08,WUHU216DAVISVP2,2013-07-11 14:24:00,
2013-07-11 10:29:00,78.5,75.6,29.92,NW,306,0.0,0.0,91,0.00,,,0.08,WUHU216DAVISVP2,2013-07-11 14:29:00,
2013-07-11 10:34:00,78.3,75.1,29.92,SSW,198,0.0,4.0,90,0.00,,,0.08,WUHU216DAVISVP2,2013-07-11 14:34:00,
2013-07-11 10:39:00,78.3,75.1,29.92,SW,234,0.0,4.0,90,0.00,,,0.08,WUHU216DAVISVP2,2013-07-11 14:39:00,
2013-07-11 10:44:00,78.1,74.9,29.92,WNW,284,0.0,2.0,90,0.00,,,0.08,WUHU216DAVISVP2,2013-07-11 14:44:00,
2013-07-11 10:49:00,78.3,75.1,29.92,NNE,14,0.0,0.0,90,0.00,,,0.08,WUHU216DAVISVP2,2013-07-11 14:49:00,
2013-07-11 10:54:00,78.3,75.1,29.92,NNE,21,0.0,2.0,90,0.00,,,0.08,WUHU216DAVISVP2,2013-07-11 14:54:00,
2013-07-11 10:59:00,78.3,75.1,29.92,WNW,285,0.0,2.0,90,0.00,,,0.08,WUHU216DAVISVP2,2013-07-11 14:59:00,
2013-07-11 11:04:00,78.6,75.4,29.92,North,4,0.0,4.0,90,0.00,,,0.08,WUHU216DAVISVP2,2013-07-11 15:04:00,
2013-07-11 11:09:00,78.3,75.1,29.92,NNW,329,4.0,4.0,90,0.00,,,0.08,WUHU216DAVISVP2,2013-07-11 15:09:00,
2013-07-11 11:15:00,78.3,74.8,29.92,NW,309,4.0,4.0,89,0.00,,,0.08,WUHU216DAVISVP2,2013-07-11 15:15:00,
2013-07-11 11:20:00,78.1,74.6,29.92,WSW,247,0.0,4.0,89,0.00,,,0.08,WUHU216DAVISVP2,2013-07-11 15:20:00,
2013-07-11 11:25:00,78.1,74.6,29.92,WSW,246,0.0,1.0,89,0.00,,,0.08,WUHU216DAVISVP2,2013-07-11 15:25:00,
2013-07-11 11:30:00,78.1,74.3,29.92,North,357,1.0,2.0,88,0.00,,,0.08,WUHU216DAVISVP2,2013-07-11 15:30:00,
2013-07-11 11:35:00,78.1,74.3,29.92,WNW,298,1.0,7.0,88,0.00,,,0.08,WUHU216DAVISVP2,2013-07-11 15:35:00,
2013-07-11 11:40:00,78.6,74.8,29.92,North,0,0.0,7.0,88,0.00,,,0.08,WUHU216DAVISVP2,2013-07-11 15:40:00,
2013-07-11 11:46:00,79.0,75.2,29.92,North,0,0.0,2.0,88,0.00,,,0.08,WUHU216DAVISVP2,2013-07-11 15:46:00,
2013-07-11 11:51:00,78.8,75.0,29.92,NW,316,0.0,2.0,88,0.00,,,0.08,WUHU216DAVISVP2,2013-07-11 15:51:00,
2013-07-11 11:56:00,79.0,74.8,29.92,SSW,205,0.0,2.0,87,0.00,,,0.08,WUHU216DAVISVP2,2013-07-11 15:56:00,
2013-07-11 12:01:00,79.2,75.4,29.92,SSW,206,0.0,0.0,88,0.00,,,0.08,WUHU216DAVISVP2,2013-07-11 16:01:00,
2013-07-11 12:06:00,79.4,75.5,29.92,NW,311,0.0,0.0,88,0.00,,,0.08,WUHU216DAVISVP2,2013-07-11 16:06:00,
2013-07-11 12:11:00,79.6,75.4,29.92,North,7,0.0,2.0,87,0.00,,,0.08,WUHU216DAVISVP2,2013-07-11 16:11:00,
2013-07-11 12:17:00,79.9,75.7,29.91,North,0,2.0,2.0,87,0.00,,,0.08,WUHU216DAVISVP2,2013-07-11 16:17:00,
2013-07-11 12:22:00,80.5,75.6,29.91,ENE,69,0.0,2.0,85,0.00,,,0.08,WUHU216DAVISVP2,2013-07-11 16:22:00,
2013-07-11 12:27:00,80.7,75.8,29.91,NNE,30,0.0,1.0,85,0.00,,,0.08,WUHU216DAVISVP2,2013-07-11 16:27:00,
2013-07-11 12:32:00,80.9,76.4,29.91,NNE,23,0.0,2.0,86,0.00,,,0.08,WUHU216DAVISVP2,2013-07-11 16:32:00,
2013-07-11 12:37:00,81.1,76.2,29.91,NNE,23,0.0,2.0,85,0.00,,,0.08,WUHU216DAVISVP2,2013-07-11 16:37:00,
2013-07-11 12:42:00,81.1,75.9,29.91,NE,37,0.0,0.0,84,0.00,,,0.08,WUHU216DAVISVP2,2013-07-11 16:42:00,
2013-07-11 12:47:00,81.2,76.0,29.90,NE,37,0.0,0.0,84,0.00,,,0.08,WUHU216DAVISVP2,2013-07-11 16:47:00,
2013-07-11 12:52:00,80.9,75.7,29.90,NNE,18,0.0,1.0,84,0.00,,,0.08,WUHU216DAVISVP2,2013-07-11 16:52:00,
2013-07-11 12:57:00,81.1,75.8,29.90,NNE,18,0.0,0.0,84,0.00,,,0.08,WUHU216DAVISVP2,2013-07-11 16:57:00,
2013-07-11 13:05:00,81.2,75.9,29.90,NNE,18,0.0,0.0,84,0.00,,,0.08,WUHU216DAVISVP2,2013-07-11 17:05:00,
2013-07-11 13:10:00,81.6,76.3,29.90,NNE,18,0.0,0.0,84,0.00,,,0.08,WUHU216DAVISVP2,2013-07-11 17:10:00,
2013-07-11 13:15:00,81.4,75.5,29.90,NNE,18,0.0,0.0,82,0.00,,,0.08,WUHU216DAVISVP2,2013-07-11 17:15:00,
2013-07-11 13:20:00,81.2,75.3,29.90,NE,40,0.0,0.0,82,0.00,,,0.08,WUHU216DAVISVP2,2013-07-11 17:20:00,
2013-07-11 13:25:00,81.1,75.5,29.90,NNE,25,0.0,0.0,83,0.00,,,0.08,WUHU216DAVISVP2,2013-07-11 17:25:00,
2013-07-11 13:30:00,80.9,75.3,29.90,East,93,0.0,4.0,83,0.02,,,0.10,WUHU216DAVISVP2,2013-07-11 17:30:00,
2013-07-11 13:35:00,80.3,75.1,29.90,North,0,0.0,4.0,84,0.14,,,0.24,WUHU216DAVISVP2,2013-07-11 17:35:00,
2013-07-11 13:40:00,79.2,73.7,29.90,SSE,160,0.0,2.0,83,0.32,,,0.40,WUHU216DAVISVP2,2013-07-11 17:40:00,
2013-07-11 13:45:00,78.3,73.1,29.91,SSE,160,0.0,2.0,84,0.38,,,0.46,WUHU216DAVISVP2,2013-07-11 17:45:00,
2013-07-11 13:51:00,77.7,72.9,29.91,SSE,160,0.0,0.0,85,0.42,,,0.50,WUHU216DAVISVP2,2013-07-11 17:51:00,
2013-07-11 13:56:00,77.6,73.1,29.91,WSW,241,1.0,1.0,86,0.42,,,0.50,WUHU216DAVISVP2,2013-07-11 17:56:00,
2013-07-11 14:01:00,77.0,72.5,29.91,NW,305,0.0,8.0,86,0.44,,,0.53,WUHU216DAVISVP2,2013-07-11 18:01:00,
2013-07-11 14:06:00,76.3,71.8,29.91,North,0,0.0,8.0,86,0.46,,,0.54,WUHU216DAVISVP2,2013-07-11 18:06:00,
2013-07-11 14:11:00,76.1,72.0,29.91,North,0,0.0,1.0,87,0.46,,,0.54,WUHU216DAVISVP2,2013-07-11 18:11:00,
2013-07-11 14:16:00,76.0,71.9,29.91,NNW,328,0.0,1.0,87,0.61,,,0.69,WUHU216DAVISVP2,2013-07-11 18:16:00,
2013-07-11 14:21:00,75.8,71.7,29.91,NNW,328,0.0,1.0,87,0.64,,,0.72,WUHU216DAVISVP2,2013-07-11 18:21:00,
2013-07-11 14:27:00,75.8,72.0,29.91,NNW,328,0.0,0.0,88,0.64,,,0.72,WUHU216DAVISVP2,2013-07-11 18:27:00,
2013-07-11 14:32:00,76.0,72.2,29.90,NNW,328,0.0,0.0,88,0.60,,,0.72,WUHU216DAVISVP2,2013-07-11 18:32:00,
2013-07-11 14:37:00,76.0,72.2,29.90,NNW,328,0.0,0.0,88,0.45,,,0.73,WUHU216DAVISVP2,2013-07-11 18:37:00,
2013-07-11 14:42:00,75.8,72.0,29.90,NNW,328,0.0,0.0,88,0.29,,,0.73,WUHU216DAVISVP2,2013-07-11 18:42:00,
2013-07-11 14:47:00,75.8,72.0,29.89,NNW,328,0.0,0.0,88,0.23,,,0.73,WUHU216DAVISVP2,2013-07-11 18:47:00,
2013-07-11 14:53:00,76.0,72.2,29.89,NNW,328,0.0,0.0,88,0.23,,,0.73,WUHU216DAVISVP2,2013-07-11 18:53:00,
2013-07-11 14:58:00,76.0,72.2,29.89,NNW,328,0.0,0.0,88,0.22,,,0.73,WUHU216DAVISVP2,2013-07-11 18:58:00,
2013-07-11 15:03:00,76.0,72.2,29.88,NNW,328,0.0,0.0,88,0.21,,,0.74,WUHU216DAVISVP2,2013-07-11 19:03:00,
2013-07-11 15:08:00,76.0,72.2,29.88,NNW,328,0.0,0.0,88,0.20,,,0.74,WUHU216DAVISVP2,2013-07-11 19:08:00,
2013-07-11 15:13:00,76.3,72.8,29.88,NNW,328,0.0,0.0,89,0.20,,,0.74,WUHU216DAVISVP2,2013-07-11 19:13:00,
2013-07-11 15:18:00,76.3,72.8,29.87,NNW,328,0.0,0.0,89,0.02,,,0.74,WUHU216DAVISVP2,2013-07-11 19:18:00,
2013-07-11 15:23:00,76.5,73.0,29.87,NNW,328,0.0,0.0,89,0.02,,,0.74,WUHU216DAVISVP2,2013-07-11 19:23:00,
2013-07-11 15:28:00,76.3,72.5,29.87,NNW,328,0.0,0.0,88,0.02,,,0.74,WUHU216DAVISVP2,2013-07-11 19:28:00,
2013-07-11 15:33:00,76.0,72.2,29.87,NNW,328,0.0,0.0,88,0.02,,,0.74,WUHU216DAVISVP2,2013-07-11 19:33:00,
2013-07-11 15:38:00,76.0,72.2,29.87,NNW,328,0.0,0.0,88,0.01,,,0.74,WUHU216DAVISVP2,2013-07-11 19:38:00,
2013-07-11 15:43:00,76.3,72.8,29.87,NNW,328,0.0,0.0,89,0.01,,,0.74,WUHU216DAVISVP2,2013-07-11 19:43:00,
2013-07-11 15:49:00,76.5,73.0,29.86,NNW,328,0.0,0.0,89,0.01,,,0.74,WUHU216DAVISVP2,2013-07-11 19:49:00,
2013-07-11 15:54:00,76.7,73.2,29.86,NNW,328,0.0,0.0,89,0.01,,,0.74,WUHU216DAVISVP2,2013-07-11 19:54:00,
2013-07-11 16:00:00,77.0,73.5,29.86,NNW,328,0.0,0.0,89,0.01,,,0.74,WUHU216DAVISVP2,2013-07-11 20:00:00,
2013-07-11 16:05:00,77.2,73.7,29.86,NNW,328,0.0,0.0,89,0.00,,,0.74,WUHU216DAVISVP2,2013-07-11 20:05:00,
2013-07-11 16:10:00,77.4,73.9,29.86,NNW,328,0.0,0.0,89,0.00,,,0.74,WUHU216DAVISVP2,2013-07-11 20:10:00,
2013-07-11 16:15:00,77.4,73.9,29.85,NNW,328,0.0,0.0,89,0.00,,,0.74,WUHU216DAVISVP2,2013-07-11 20:15:00,
2013-07-11 16:20:00,77.7,74.2,29.85,NNW,328,0.0,0.0,89,0.00,,,0.74,WUHU216DAVISVP2,2013-07-11 20:20:00,
2013-07-11 16:25:00,77.9,74.4,29.85,NNW,328,0.0,0.0,89,0.00,,,0.74,WUHU216DAVISVP2,2013-07-11 20:25:00,
2013-07-11 16:30:00,77.9,74.4,29.85,NNW,328,0.0,0.0,89,0.00,,,0.74,WUHU216DAVISVP2,2013-07-11 20:30:00,
2013-07-11 16:35:00,78.1,74.6,29.85,NNW,328,0.0,0.0,89,0.00,,,0.74,WUHU216DAVISVP2,2013-07-11 20:35:00,
2013-07-11 16:41:00,78.1,74.6,29.85,NNW,328,0.0,0.0,89,0.00,,,0.74,WUHU216DAVISVP2,2013-07-11 20:41:00,
2013-07-11 16:46:00,78.1,74.6,29.85,NNW,328,0.0,0.0,89,0.00,,,0.74,WUHU216DAVISVP2,2013-07-11 20:46:00,
2013-07-11 16:51:00,78.3,74.8,29.85,NNW,328,0.0,0.0,89,0.00,,,0.74,WUHU216DAVISVP2,2013-07-11 20:51:00,
2013-07-11 16:56:00,78.1,74.6,29.85,East,99,0.0,0.0,89,0.00,,,0.74,WUHU216DAVISVP2,2013-07-11 20:56:00,
2013-07-11 17:01:00,78.1,74.6,29.85,East,99,0.0,0.0,89,0.00,,,0.74,WUHU216DAVISVP2,2013-07-11 21:01:00,
2013-07-11 17:06:00,78.3,74.8,29.85,East,99,0.0,0.0,89,0.00,,,0.74,WUHU216DAVISVP2,2013-07-11 21:06:00,
2013-07-11 17:12:00,78.3,74.8,29.85,East,99,0.0,0.0,89,0.00,,,0.74,WUHU216DAVISVP2,2013-07-11 21:12:00,
2013-07-11 17:17:00,78.3,74.8,29.85,East,99,0.0,0.0,89,0.00,,,0.74,WUHU216DAVISVP2,2013-07-11 21:17:00,
2013-07-11 17:21:00,78.5,75.0,29.85,East,99,0.0,0.0,89,0.00,,,0.74,WUHU216DAVISVP2,2013-07-11 21:21:00,
2013-07-11 17:26:00,78.5,75.0,29.85,East,99,0.0,0.0,89,0.00,,,0.74,WUHU216DAVISVP2,2013-07-11 21:26:00,
2013-07-11 17:32:00,78.5,75.0,29.85,East,99,0.0,0.0,89,0.00,,,0.74,WUHU216DAVISVP2,2013-07-11 21:32:00,
2013-07-11 17:37:00,78.6,75.1,29.85,East,99,0.0,0.0,89,0.00,,,0.74,WUHU216DAVISVP2,2013-07-11 21:37:00,
2013-07-11 17:42:00,78.6,75.1,29.85,East,99,0.0,0.0,89,0.01,,,0.75,WUHU216DAVISVP2,2013-07-11 21:42:00,
2013-07-11 17:47:00,78.8,75.3,29.86,East,99,0.0,0.0,89,0.01,,,0.75,WUHU216DAVISVP2,2013-07-11 21:47:00,
2013-07-11 17:52:00,78.6,75.1,29.86,East,99,0.0,0.0,89,0.01,,,0.75,WUHU216DAVISVP2,2013-07-11 21:52:00,
2013-07-11 17:58:00,78.8,75.3,29.86,East,99,0.0,0.0,89,0.01,,,0.75,WUHU216DAVISVP2,2013-07-11 21:58:00,
2013-07-11 18:03:00,78.6,75.1,29.86,East,99,0.0,0.0,89,0.01,,,0.75,WUHU216DAVISVP2,2013-07-11 22:03:00,
2013-07-11 18:08:00,78.6,75.1,29.86,East,99,0.0,0.0,89,0.01,,,0.75,WUHU216DAVISVP2,2013-07-11 22:08:00,
2013-07-11 18:13:00,78.6,75.1,29.86,East,99,0.0,0.0,89,0.01,,,0.75,WUHU216DAVISVP2,2013-07-11 22:13:00,
2013-07-11 18:18:00,78.6,75.1,29.86,East,99,0.0,0.0,89,0.01,,,0.75,WUHU216DAVISVP2,2013-07-11 22:18:00,
2013-07-11 18:23:00,78.6,75.4,29.86,East,99,0.0,0.0,90,0.01,,,0.75,WUHU216DAVISVP2,2013-07-11 22:23:00,
2013-07-11 18:28:00,78.6,75.1,29.86,East,99,0.0,0.0,89,0.01,,,0.75,WUHU216DAVISVP2,2013-07-11 22:28:00,
2013-07-11 18:34:00,78.8,75.6,29.86,East,99,0.0,0.0,90,0.01,,,0.75,WUHU216DAVISVP2,2013-07-11 22:34:00,
2013-07-11 18:39:00,78.8,75.6,29.86,East,99,0.0,0.0,90,0.01,,,0.75,WUHU216DAVISVP2,2013-07-11 22:39:00,
2013-07-11 18:44:00,78.8,75.6,29.86,East,99,0.0,0.0,90,0.00,,,0.75,WUHU216DAVISVP2,2013-07-11 22:44:00,
2013-07-11 18:49:00,79.0,75.8,29.86,East,99,0.0,0.0,90,0.00,,,0.75,WUHU216DAVISVP2,2013-07-11 22:49:00,
2013-07-11 18:54:00,78.8,75.6,29.86,East,99,0.0,0.0,90,0.00,,,0.75,WUHU216DAVISVP2,2013-07-11 22:54:00,
2013-07-11 18:59:00,78.8,75.6,29.86,East,99,0.0,0.0,90,0.00,,,0.75,WUHU216DAVISVP2,2013-07-11 22:59:00,
2013-07-11 19:04:00,79.0,75.8,29.86,East,99,0.0,0.0,90,0.00,,,0.75,WUHU216DAVISVP2,2013-07-11 23:04:00,
2013-07-11 19:09:00,78.8,75.6,29.86,East,99,0.0,0.0,90,0.00,,,0.75,WUHU216DAVISVP2,2013-07-11 23:09:00,
2013-07-11 19:14:00,78.8,75.6,29.85,East,99,0.0,0.0,90,0.00,,,0.75,WUHU216DAVISVP2,2013-07-11 23:14:00,
2013-07-11 19:20:00,78.8,75.6,29.85,East,99,0.0,0.0,90,0.01,,,0.76,WUHU216DAVISVP2,2013-07-11 23:20:00,
2013-07-11 19:25:00,78.8,75.6,29.85,East,99,0.0,0.0,90,0.01,,,0.76,WUHU216DAVISVP2,2013-07-11 23:25:00,
2013-07-11 19:30:00,79.0,75.8,29.86,East,99,0.0,0.0,90,0.01,,,0.77,WUHU216DAVISVP2,2013-07-11 23:30:00,
2013-07-11 19:35:00,78.6,75.4,29.86,East,99,0.0,0.0,90,0.02,,,0.77,WUHU216DAVISVP2,2013-07-11 23:35:00,
2013-07-11 19:41:00,78.8,75.6,29.86,East,99,0.0,0.0,90,0.03,,,0.78,WUHU216DAVISVP2,2013-07-11 23:41:00,
2013-07-11 19:47:00,78.8,75.6,29.85,East,99,0.0,0.0,90,0.04,,,0.79,WUHU216DAVISVP2,2013-07-11 23:47:00,
2013-07-11 19:52:00,78.6,75.4,29.85,East,99,0.0,0.0,90,0.04,,,0.79,WUHU216DAVISVP2,2013-07-11 23:52:00,
2013-07-11 19:58:00,78.5,75.3,29.85,East,99,0.0,0.0,90,0.05,,,0.80,WUHU216DAVISVP2,2013-07-11 23:58:00,
2013-07-11 20:04:00,78.3,75.1,29.85,East,99,0.0,0.0,90,0.05,,,0.80,WUHU216DAVISVP2,2013-07-12 00:04:00,
2013-07-11 20:09:00,78.1,74.9,29.85,East,99,0.0,0.0,90,0.05,,,0.80,WUHU216DAVISVP2,2013-07-12 00:09:00,
2013-07-11 20:14:00,78.1,74.9,29.85,East,99,0.0,0.0,90,0.06,,,0.81,WUHU216DAVISVP2,2013-07-12 00:14:00,
2013-07-11 20:19:00,77.9,74.7,29.85,East,99,0.0,0.0,90,0.05,,,0.81,WUHU216DAVISVP2,2013-07-12 00:19:00,
2013-07-11 20:24:00,77.9,74.7,29.85,East,99,0.0,0.0,90,0.05,,,0.81,WUHU216DAVISVP2,2013-07-12 00:24:00,
2013-07-11 20:29:00,77.7,74.5,29.85,East,99,0.0,0.0,90,0.05,,,0.82,WUHU216DAVISVP2,2013-07-12 00:29:00,
2013-07-11 20:34:00,77.7,74.5,29.85,East,99,0.0,0.0,90,0.05,,,0.82,WUHU216DAVISVP2,2013-07-12 00:34:00,
2013-07-11 20:39:00,77.7,74.5,29.85,East,99,0.0,0.0,90,0.05,,,0.83,WUHU216DAVISVP2,2013-07-12 00:39:00,
2013-07-11 20:44:00,77.7,74.5,29.84,East,99,0.0,0.0,90,0.04,,,0.83,WUHU216DAVISVP2,2013-07-12 00:44:00,
2013-07-11 20:49:00,77.7,74.5,29.84,East,99,0.0,0.0,90,0.04,,,0.83,WUHU216DAVISVP2,2013-07-12 00:49:00,
2013-07-11 20:55:00,77.7,74.5,29.84,East,99,0.0,0.0,90,0.03,,,0.83,WUHU216DAVISVP2,2013-07-12 00:55:00,
2013-07-11 21:00:00,77.7,74.5,29.84,East,99,0.0,0.0,90,0.03,,,0.83,WUHU216DAVISVP2,2013-07-12 01:00:00,
2013-07-11 21:05:00,77.6,74.4,29.84,East,99,0.0,0.0,90,0.03,,,0.83,WUHU216DAVISVP2,2013-07-12 01:05:00,
2013-07-11 21:10:00,77.6,74.4,29.84,East,99,0.0,0.0,90,0.02,,,0.83,WUHU216DAVISVP2,2013-07-12 01:10:00,
2013-07-11 21:15:00,77.6,74.4,29.84,East,99,0.0,0.0,90,0.02,,,0.83,WUHU216DAVISVP2,2013-07-12 01:15:00,
2013-07-11 21:21:00,77.4,74.2,29.84,East,99,0.0,0.0,90,0.02,,,0.83,WUHU216DAVISVP2,2013-07-12 01:21:00,
2013-07-11 21:26:00,77.6,74.4,29.84,East,99,0.0,0.0,90,0.02,,,0.83,WUHU216DAVISVP2,2013-07-12 01:26:00,
2013-07-11 21:31:00,77.4,74.2,29.86,East,99,0.0,0.0,90,0.01,,,0.83,WUHU216DAVISVP2,2013-07-12 01:31:00,
2013-07-11 21:36:00,77.4,74.6,29.86,East,99,0.0,0.0,91,0.01,,,0.83,WUHU216DAVISVP2,2013-07-12 01:36:00,
2013-07-11 21:41:00,77.4,74.6,29.86,East,99,0.0,0.0,91,0.00,,,0.83,WUHU216DAVISVP2,2013-07-12 01:41:00,
2013-07-11 21:46:00,77.4,74.6,29.86,East,99,0.0,0.0,91,0.00,,,0.83,WUHU216DAVISVP2,2013-07-12 01:46:00,
2013-07-11 21:51:00,77.6,74.7,29.86,East,99,0.0,0.0,91,0.00,,,0.83,WUHU216DAVISVP2,2013-07-12 01:51:00,
2013-07-11 21:57:00,77.6,74.7,29.86,East,99,0.0,0.0,91,0.00,,,0.83,WUHU216DAVISVP2,2013-07-12 01:57:00,
2013-07-11 22:02:00,77.6,74.7,29.86,East,99,0.0,0.0,91,0.00,,,0.83,WUHU216DAVISVP2,2013-07-12 02:02:00,
2013-07-11 22:07:00,77.4,74.6,29.86,East,99,0.0,0.0,91,0.00,,,0.83,WUHU216DAVISVP2,2013-07-12 02:07:00,
2013-07-11 22:12:00,77.4,74.6,29.86,East,99,0.0,0.0,91,0.00,,,0.83,WUHU216DAVISVP2,2013-07-12 02:12:00,
2013-07-11 22:17:00,77.4,74.6,29.87,East,99,0.0,0.0,91,0.00,,,0.83,WUHU216DAVISVP2,2013-07-12 02:17:00,
2013-07-11 22:22:00,77.4,74.6,29.87,East,99,0.0,0.0,91,0.00,,,0.83,WUHU216DAVISVP2,2013-07-12 02:22:00,
2013-07-11 22:27:00,77.4,74.6,29.87,East,99,0.0,0.0,91,0.00,,,0.83,WUHU216DAVISVP2,2013-07-12 02:27:00,
2013-07-11 22:32:00,77.4,74.6,29.87,East,99,0.0,0.0,91,0.00,,,0.83,WUHU216DAVISVP2,2013-07-12 02:32:00,
2013-07-11 22:37:00,77.4,74.6,29.87,East,99,0.0,0.0,91,0.00,,,0.83,WUHU216DAVISVP2,2013-07-12 02:37:00,
2013-07-11 22:43:00,77.4,74.6,29.87,East,99,0.0,0.0,91,0.00,,,0.83,WUHU216DAVISVP2,2013-07-12 02:43:00,
2013-07-11 22:48:00,77.4,74.6,29.87,East,99,0.0,0.0,91,0.00,,,0.83,WUHU216DAVISVP2,2013-07-12 02:48:00,
2013-07-11 23:43:00,77.2,74.4,29.85,East,99,0.0,0.0,91,0.00,,,0.83,WUHU216DAVISVP2,2013-07-12 03:43:00,
2013-07-11 23:48:00,77.2,74.4,29.84,East,99,0.0,0.0,91,0.00,,,0.83,WUHU216DAVISVP2,2013-07-12 03:48:00,
2013-07-11 23:54:00,77.2,74.4,29.84,East,99,0.0,0.0,91,0.00,,,0.83,WUHU216DAVISVP2,2013-07-12 03:54:00,
2013-07-11 23:59:00,77.2,74.4,29.84,East,99,0.0,0.0,91,0.00,,,0.83,WUHU216DAVISVP2,2013-07-12 03:59:00,